Montezuma, Virginia
Current Conditions -  °F | °C
As of 11:35 PM on Monday 20 Oct 2014 (Local Time) from KVBW Reporting Station
Overcast Overcast  
Wind Chill: 55°   Ceiling: 10000
Heat Index: 55°   Visibility: 10mi
Dew Point: 47°   Wind: 0mph
Humidity: 76%   Direction: NA
Pressure: 29.93"   Gusts: NA
Location:  38.4726°N, 79.0833°W
Report Text: KVBW 210335Z AUTO 00000KT 10SM OVC100 13/08 A2993 RMK AO2 T01250083
Loading
Personal Weather Stations






























Interactive Weather Map
Tropical Storm Tracking
New forecast layout! Learn more

10-Day Weather Forecast

Advertisements
Track Severe Weather on mobile